createdAt,value
2022-07-26T00:00:07.363Z,12.82
2022-07-26T00:02:35.290Z,12.83
2022-07-26T00:05:04.243Z,12.91
2022-07-26T00:07:36.433Z,12.97
2022-07-26T00:10:07.380Z,13.00
2022-07-26T00:12:35.462Z,13.00
2022-07-26T00:15:04.915Z,13.13
2022-07-26T00:17:33.953Z,13.18
2022-07-26T00:20:01.975Z,13.24
2022-07-26T00:22:41.795Z,13.32
2022-07-26T00:25:22.607Z,13.42
2022-07-26T00:27:52.768Z,13.43
2022-07-26T00:30:21.301Z,13.52
2022-07-26T00:32:49.465Z,13.55
2022-07-26T00:35:19.690Z,13.52
2022-07-26T00:37:48.683Z,13.62
2022-07-26T00:40:17.070Z,13.61
2022-07-26T00:42:46.118Z,13.71
2022-07-26T00:45:16.388Z,13.75
2022-07-26T00:47:44.621Z,13.77
2022-07-26T00:50:16.438Z,13.80
2022-07-26T00:52:46.606Z,13.83
2022-07-26T00:55:16.152Z,13.86
2022-07-26T00:57:44.448Z,13.90
2022-07-26T01:00:18.589Z,13.97
2022-07-26T01:02:47.611Z,14.05
2022-07-26T01:05:16.305Z,14.03
2022-07-26T01:07:45.795Z,14.15
2022-07-26T01:10:14.968Z,14.24
2022-07-26T01:12:44.666Z,14.30
2022-07-26T01:15:15.012Z,14.40
2022-07-26T01:17:46.715Z,14.51
2022-07-26T01:20:15.709Z,14.60
2022-07-26T01:25:43.304Z,14.89
2022-07-26T01:28:12.141Z,15.11
2022-07-26T01:30:50.313Z,15.38
2022-07-26T01:33:18.625Z,15.62
2022-07-26T01:35:46.667Z,15.77
2022-07-26T01:38:18.487Z,16.07
2022-07-26T01:40:46.502Z,16.32
2022-07-26T01:43:14.575Z,16.51
2022-07-26T01:45:42.832Z,16.71
2022-07-26T01:48:11.100Z,16.91
2022-07-26T01:50:39.369Z,17.12
2022-07-26T01:53:08.415Z,17.34
2022-07-26T01:55:37.359Z,17.47
2022-07-26T01:58:06.996Z,17.51
2022-07-26T02:00:35.768Z,17.57
2022-07-26T02:03:04.129Z,17.63
2022-07-26T02:05:32.420Z,17.66
2022-07-26T02:08:00.745Z,17.70
2022-07-26T02:10:47.619Z,17.87
2022-07-26T02:13:15.889Z,18.00
2022-07-26T02:15:44.038Z,18.06
2022-07-26T02:18:12.491Z,18.12
2022-07-26T02:20:40.521Z,18.21
2022-07-26T02:23:08.558Z,18.36
2022-07-26T02:25:37.732Z,18.54
2022-07-26T02:28:06.008Z,18.75
2022-07-26T02:30:34.415Z,18.96
2022-07-26T02:33:02.537Z,19.12
2022-07-26T02:35:32.711Z,19.27
2022-07-26T02:38:05.988Z,19.35
2022-07-26T02:40:35.740Z,19.29
2022-07-26T02:43:05.200Z,19.28
2022-07-26T02:45:33.452Z,19.20
2022-07-26T02:48:01.801Z,19.33
2022-07-26T02:50:30.574Z,19.40
2022-07-26T02:52:58.639Z,19.43
2022-07-26T02:55:28.285Z,19.49
2022-07-26T02:57:56.450Z,19.60
2022-07-26T03:00:27.500Z,19.81
2022-07-26T03:02:56.599Z,20.02
2022-07-26T03:05:24.709Z,20.11
2022-07-26T03:07:52.805Z,20.24
2022-07-26T03:10:21.210Z,20.41
2022-07-26T03:12:49.332Z,20.59
2022-07-26T03:15:17.307Z,20.71
2022-07-26T03:17:45.533Z,20.86
2022-07-26T03:20:13.804Z,21.01
2022-07-26T03:22:43.496Z,21.17
2022-07-26T03:25:12.740Z,21.28
2022-07-26T03:27:40.803Z,21.34
2022-07-26T03:30:09.607Z,21.21
2022-07-26T03:32:38.846Z,20.96
2022-07-26T03:35:09.043Z,20.70
2022-07-26T03:37:46.113Z,20.48
2022-07-26T03:40:19.259Z,20.24
2022-07-26T03:42:48.545Z,20.12
2022-07-26T03:45:17.064Z,20.00
2022-07-26T03:47:49.450Z,19.88
2022-07-26T03:50:17.405Z,19.77
2022-07-26T03:52:45.457Z,19.81
2022-07-26T03:55:32.883Z,19.80
2022-07-26T03:58:00.864Z,19.74
2022-07-26T04:00:29.002Z,19.98
2022-07-26T04:02:57.224Z,20.15
2022-07-26T04:05:26.198Z,20.42
2022-07-26T04:07:54.389Z,20.52
2022-07-26T04:10:25.499Z,20.55
2022-07-26T04:12:53.620Z,20.48
2022-07-26T04:15:40.395Z,20.45
2022-07-26T04:18:08.405Z,20.34
2022-07-26T04:20:36.417Z,20.24
2022-07-26T04:23:11.336Z,20.11
2022-07-26T04:25:41.850Z,20.11
2022-07-26T04:28:11.736Z,20.13
2022-07-26T04:30:40.623Z,20.13
2022-07-26T04:33:08.740Z,20.14
2022-07-26T04:35:36.985Z,20.25
2022-07-26T04:38:06.970Z,20.33
2022-07-26T04:40:35.087Z,20.56
2022-07-26T04:43:15.945Z,20.72
2022-07-26T04:45:46.173Z,20.78
2022-07-26T04:48:15.441Z,20.72
2022-07-26T04:50:45.846Z,20.63
2022-07-26T04:53:14.067Z,20.45
2022-07-26T04:55:42.940Z,20.42
2022-07-26T04:58:11.923Z,20.40
2022-07-26T05:01:09.000Z,20.46
2022-07-26T05:03:28.286Z,20.54
2022-07-26T05:05:56.303Z,20.55
2022-07-26T05:08:24.316Z,20.58
2022-07-26T05:10:55.441Z,20.56
2022-07-26T05:13:30.701Z,20.55
2022-07-26T05:16:02.332Z,20.64
2022-07-26T05:18:31.705Z,20.77
2022-07-26T05:21:10.621Z,20.87
2022-07-26T05:23:38.773Z,20.92
2022-07-26T05:26:06.844Z,20.97
2022-07-26T05:28:35.724Z,21.02
2022-07-26T05:31:03.757Z,21.04
2022-07-26T05:33:31.861Z,21.16
2022-07-26T05:36:00.177Z,21.31
2022-07-26T05:38:28.298Z,21.49
2022-07-26T05:43:42.130Z,21.60
2022-07-26T05:46:12.333Z,21.56
2022-07-26T05:48:41.212Z,21.54
2022-07-26T05:51:12.374Z,21.50
2022-07-26T05:53:40.783Z,21.46
2022-07-26T05:56:09.258Z,21.40
2022-07-26T05:58:38.185Z,21.34
2022-07-26T06:01:06.365Z,21.29
2022-07-26T06:03:34.448Z,21.10
2022-07-26T06:06:02.675Z,20.99
2022-07-26T06:08:30.997Z,20.92
2022-07-26T06:10:59.768Z,20.92
2022-07-26T06:13:29.430Z,20.93
2022-07-26T06:15:57.339Z,20.78
2022-07-26T06:18:25.624Z,20.95
2022-07-26T06:21:14.802Z,20.98
2022-07-26T06:23:43.920Z,21.08
2022-07-26T06:26:12.900Z,21.17
2022-07-26T06:28:41.927Z,21.22
2022-07-26T06:31:09.912Z,21.22
2022-07-26T06:33:38.254Z,21.25
2022-07-26T06:36:09.048Z,21.31
2022-07-26T06:38:37.360Z,21.32
2022-07-26T06:41:05.575Z,21.32
2022-07-26T06:43:35.673Z,21.39
2022-07-26T06:46:03.867Z,21.50
2022-07-26T06:48:31.969Z,21.59
2022-07-26T06:51:01.696Z,21.70
2022-07-26T06:53:47.948Z,21.81
2022-07-26T06:56:18.911Z,21.82
2022-07-26T06:58:47.374Z,21.79
2022-07-26T07:01:51.374Z,21.86
2022-07-26T07:04:05.087Z,21.90
2022-07-26T07:06:33.327Z,21.94
2022-07-26T07:09:01.321Z,21.92
2022-07-26T07:11:31.832Z,21.86
2022-07-26T07:16:46.734Z,21.77
2022-07-26T07:19:14.747Z,21.74
2022-07-26T07:21:42.771Z,21.68
2022-07-26T07:24:11.133Z,21.67
2022-07-26T07:26:42.162Z,21.65
2022-07-26T07:29:13.516Z,21.61
2022-07-26T07:31:49.153Z,21.69
2022-07-26T07:34:19.656Z,21.70
2022-07-26T07:36:50.718Z,21.69
2022-07-26T07:39:19.534Z,21.62
2022-07-26T07:41:48.998Z,21.60
2022-07-26T07:44:17.646Z,21.54
2022-07-26T07:46:45.680Z,21.51
2022-07-26T07:49:13.973Z,21.55
2022-07-26T07:51:42.539Z,21.58
2022-07-26T07:54:16.570Z,21.79
2022-07-26T07:56:44.874Z,21.95
2022-07-26T07:59:14.801Z,21.94
2022-07-26T08:01:43.134Z,22.04
2022-07-26T08:04:13.184Z,22.04
2022-07-26T08:06:41.542Z,22.02
2022-07-26T08:09:09.836Z,21.97
2022-07-26T08:11:41.869Z,21.91
2022-07-26T08:14:11.494Z,21.85
2022-07-26T08:16:41.326Z,22.02
2022-07-26T08:19:09.785Z,22.24
2022-07-26T08:21:39.761Z,22.35
2022-07-26T08:24:08.228Z,22.31
2022-07-26T08:26:38.141Z,22.23
2022-07-26T08:29:07.347Z,22.14
2022-07-26T08:31:35.464Z,22.04
2022-07-26T08:34:03.697Z,21.95
2022-07-26T08:36:33.243Z,21.90
2022-07-26T08:39:02.618Z,21.94
2022-07-26T08:41:31.920Z,22.04
2022-07-26T08:44:13.931Z,22.11
2022-07-26T08:46:43.829Z,22.16
2022-07-26T08:49:13.180Z,22.18
2022-07-26T08:51:45.543Z,22.11
2022-07-26T08:54:16.343Z,21.96
2022-07-26T08:56:53.179Z,21.85
2022-07-26T08:59:24.582Z,21.76
2022-07-26T09:02:08.835Z,21.68
2022-07-26T09:04:44.501Z,21.67
2022-07-26T09:07:20.799Z,21.70
2022-07-26T09:10:00.675Z,21.81
2022-07-26T09:12:31.825Z,21.88
2022-07-26T09:15:01.063Z,21.88
2022-07-26T09:17:47.539Z,21.83
2022-07-26T09:20:25.947Z,21.77
2022-07-26T09:23:08.855Z,21.72
2022-07-26T09:25:42.414Z,21.69
2022-07-26T09:28:31.708Z,21.66
2022-07-26T09:31:03.973Z,21.68
2022-07-26T09:33:52.881Z,21.74
2022-07-26T09:36:22.359Z,21.81
2022-07-26T09:38:53.410Z,21.83
2022-07-26T09:41:40.764Z,21.80
2022-07-26T09:44:25.689Z,21.73
2022-07-26T09:47:00.522Z,21.66
2022-07-26T09:49:40.575Z,21.61
2022-07-26T09:52:22.460Z,21.61
2022-07-26T09:54:50.637Z,21.57
2022-07-26T09:57:20.543Z,21.51
2022-07-26T09:59:48.515Z,21.51
2022-07-26T10:02:16.625Z,21.51
2022-07-26T10:04:45.079Z,21.46
2022-07-26T10:07:14.087Z,21.45
2022-07-26T10:10:12.145Z,21.46
2022-07-26T10:12:44.823Z,21.52
2022-07-26T10:15:50.726Z,21.57
2022-07-26T10:18:39.269Z,21.57
2022-07-26T10:21:21.544Z,21.52
2022-07-26T10:23:51.254Z,21.48
2022-07-26T10:26:35.409Z,21.45
2022-07-26T10:29:18.902Z,21.40
2022-07-26T10:32:09.785Z,21.39
2022-07-26T10:34:43.426Z,21.42
2022-07-26T10:37:23.706Z,21.49
2022-07-26T10:40:16.615Z,21.58
2022-07-26T10:42:46.021Z,21.62
2022-07-26T10:45:24.249Z,21.59
2022-07-26T10:48:15.342Z,21.61
2022-07-26T10:50:45.885Z,21.63
2022-07-26T10:53:26.057Z,21.61
2022-07-26T10:56:00.857Z,21.60
2022-07-26T10:58:28.871Z,21.61
2022-07-26T11:01:02.341Z,21.61
2022-07-26T11:03:39.214Z,21.61
2022-07-26T11:06:30.486Z,21.60
2022-07-26T11:08:59.506Z,21.58
2022-07-26T11:11:33.059Z,21.52
2022-07-26T11:14:12.499Z,21.47
2022-07-26T11:16:46.237Z,21.42
2022-07-26T11:19:20.485Z,21.38
2022-07-26T11:21:55.386Z,21.33
2022-07-26T11:24:23.740Z,21.29
2022-07-26T11:26:53.004Z,21.19
2022-07-26T11:29:38.938Z,21.20
2022-07-26T11:32:29.887Z,21.15
2022-07-26T11:35:06.123Z,21.10
2022-07-26T11:37:34.294Z,21.08
2022-07-26T11:40:02.447Z,21.00
2022-07-26T11:42:31.145Z,21.02
2022-07-26T11:44:59.401Z,20.99
2022-07-26T11:47:27.894Z,20.98
2022-07-26T11:52:44.497Z,20.91
2022-07-26T11:55:13.212Z,20.91
2022-07-26T11:57:41.278Z,20.88
2022-07-26T12:00:12.013Z,20.68
2022-07-26T12:02:40.349Z,20.83
2022-07-26T12:05:23.550Z,20.80
2022-07-26T12:07:57.341Z,20.79
2022-07-26T12:10:25.690Z,20.79
2022-07-26T12:13:16.469Z,20.79
2022-07-26T12:15:46.624Z,20.82
2022-07-26T12:18:29.597Z,20.85
2022-07-26T12:21:06.715Z,20.83
2022-07-26T12:23:51.827Z,20.82
2022-07-26T12:26:31.608Z,20.82
2022-07-26T12:29:22.608Z,20.77
2022-07-26T12:32:14.050Z,20.74
2022-07-26T12:34:56.417Z,20.70
2022-07-26T12:37:39.442Z,20.66
2022-07-26T12:40:17.233Z,20.62
2022-07-26T12:43:01.281Z,20.56
2022-07-26T12:45:35.869Z,20.51
2022-07-26T12:48:11.553Z,20.45
2022-07-26T12:50:39.857Z,20.46
2022-07-26T12:53:12.706Z,20.50
2022-07-26T12:55:41.353Z,20.50
2022-07-26T12:58:09.960Z,20.48
2022-07-26T13:00:38.086Z,20.44
2022-07-26T13:03:06.090Z,20.37
2022-07-26T13:05:36.563Z,20.35
2022-07-26T13:08:04.785Z,20.30
2022-07-26T13:10:54.442Z,20.25
2022-07-26T13:13:25.062Z,20.20
2022-07-26T13:15:53.113Z,20.15
2022-07-26T13:18:22.749Z,20.10
2022-07-26T13:20:50.725Z,20.05
2022-07-26T13:23:21.399Z,19.94
2022-07-26T13:25:51.461Z,19.94
2022-07-26T13:28:19.616Z,19.90
2022-07-26T13:30:47.764Z,19.85
2022-07-26T13:33:17.631Z,19.81
2022-07-26T13:35:45.548Z,19.76
2022-07-26T13:38:20.620Z,19.71
2022-07-26T13:40:51.115Z,19.67
2022-07-26T13:43:19.170Z,19.60
2022-07-26T13:45:48.278Z,19.54
2022-07-26T13:48:16.397Z,19.45
2022-07-26T13:50:44.490Z,19.44
2022-07-26T13:53:13.660Z,19.37
2022-07-26T13:55:41.784Z,19.34
2022-07-26T13:58:10.360Z,19.29
2022-07-26T14:00:41.923Z,19.28
2022-07-26T14:03:10.204Z,19.23
2022-07-26T14:05:38.339Z,19.15
2022-07-26T14:08:07.155Z,19.10
2022-07-26T14:10:40.179Z,19.05
2022-07-26T14:13:09.562Z,19.00
2022-07-26T14:15:37.796Z,18.95
2022-07-26T14:18:06.349Z,18.91
2022-07-26T14:20:34.605Z,18.82
2022-07-26T14:23:02.655Z,18.86
2022-07-26T14:25:33.282Z,18.81
2022-07-26T14:28:01.810Z,18.78
2022-07-26T14:30:30.030Z,18.70
2022-07-26T14:33:01.642Z,18.62
2022-07-26T14:35:29.768Z,18.56
2022-07-26T14:37:57.906Z,18.51
2022-07-26T14:40:27.560Z,18.46
2022-07-26T14:42:55.560Z,18.41
2022-07-26T14:45:23.598Z,18.37
2022-07-26T14:47:52.869Z,18.32
2022-07-26T14:50:23.584Z,18.26
2022-07-26T14:52:51.608Z,18.20
2022-07-26T14:55:25.002Z,18.15
2022-07-26T14:57:54.065Z,18.09
2022-07-26T15:00:22.174Z,18.02
2022-07-26T15:02:51.853Z,17.91
2022-07-26T15:05:20.557Z,17.75
2022-07-26T15:07:48.607Z,17.68
2022-07-26T15:10:16.948Z,17.57
2022-07-26T15:12:45.431Z,17.57
2022-07-26T15:15:13.484Z,17.54
2022-07-26T15:17:42.418Z,17.48
2022-07-26T15:20:10.525Z,17.41
2022-07-26T15:22:38.818Z,17.34
2022-07-26T15:25:07.458Z,17.26
2022-07-26T15:27:35.639Z,17.19
2022-07-26T15:30:06.898Z,17.13
2022-07-26T15:32:39.489Z,17.08
2022-07-26T15:35:08.129Z,17.00
2022-07-26T15:37:44.588Z,16.94
2022-07-26T15:40:13.054Z,16.90
2022-07-26T15:42:44.159Z,16.88
2022-07-26T15:45:13.782Z,16.85
2022-07-26T15:47:54.813Z,16.81
2022-07-26T15:50:24.252Z,16.74
2022-07-26T15:52:53.447Z,16.61
2022-07-26T15:55:22.380Z,16.62
2022-07-26T15:57:50.525Z,16.55
2022-07-26T16:00:19.066Z,16.50
2022-07-26T16:02:47.311Z,16.42
2022-07-26T16:05:15.478Z,16.30
2022-07-26T16:07:44.424Z,16.33
2022-07-26T16:10:14.356Z,16.28
2022-07-26T16:12:42.854Z,16.23
2022-07-26T16:15:12.603Z,16.20
2022-07-26T16:17:40.870Z,16.14
2022-07-26T16:20:09.981Z,16.08
2022-07-26T16:22:42.370Z,16.11
2022-07-26T16:25:13.817Z,16.08
2022-07-26T16:27:44.330Z,16.01
2022-07-26T16:30:15.587Z,15.96
2022-07-26T16:32:44.160Z,15.90
2022-07-26T16:35:12.588Z,15.86
2022-07-26T16:37:42.165Z,15.80
2022-07-26T16:40:11.167Z,15.78
2022-07-26T16:42:39.379Z,15.74
2022-07-26T16:45:09.563Z,15.69
2022-07-26T16:47:37.802Z,15.61
2022-07-26T16:50:06.731Z,15.62
2022-07-26T16:52:35.432Z,15.61
2022-07-26T16:55:04.854Z,15.56
2022-07-26T16:57:32.822Z,15.54
2022-07-26T17:00:12.457Z,15.46
2022-07-26T17:02:40.990Z,15.39
2022-07-26T17:05:09.780Z,15.35
2022-07-26T17:07:40.968Z,15.30
2022-07-26T17:10:11.197Z,15.28
2022-07-26T17:12:39.663Z,15.18
2022-07-26T17:15:08.477Z,15.22
2022-07-26T17:17:51.851Z,15.19
2022-07-26T17:20:21.837Z,15.14
2022-07-26T17:22:50.862Z,15.11
2022-07-26T17:25:19.849Z,15.09
2022-07-26T17:27:51.032Z,15.06
2022-07-26T17:30:18.945Z,14.99
2022-07-26T17:32:46.972Z,14.94
2022-07-26T17:35:15.376Z,14.84
2022-07-26T17:37:43.383Z,14.89
2022-07-26T17:40:12.428Z,14.89
2022-07-26T17:42:41.570Z,14.82
2022-07-26T17:45:10.013Z,14.86
2022-07-26T17:47:38.032Z,14.82
2022-07-26T17:52:57.066Z,14.68
2022-07-26T17:55:25.315Z,14.61
2022-07-26T17:57:53.651Z,14.60
2022-07-26T18:00:23.557Z,14.59
2022-07-26T18:02:58.549Z,14.57
2022-07-26T18:05:33.354Z,14.53
2022-07-26T18:08:07.261Z,14.52
2022-07-26T18:10:35.261Z,14.47
2022-07-26T18:13:03.300Z,14.50
2022-07-26T18:15:31.504Z,14.45
2022-07-26T18:17:59.473Z,14.50
2022-07-26T18:20:27.626Z,14.50
2022-07-26T18:22:57.906Z,14.42
2022-07-26T18:25:26.929Z,14.35
2022-07-26T18:27:55.196Z,14.33
2022-07-26T18:30:23.396Z,14.25
2022-07-26T18:32:51.513Z,14.27
2022-07-26T18:35:19.527Z,14.27
2022-07-26T18:37:47.972Z,14.23
2022-07-26T18:40:16.101Z,14.20
2022-07-26T18:42:44.188Z,14.15
2022-07-26T18:45:13.344Z,14.09
2022-07-26T18:47:42.659Z,14.03
2022-07-26T18:50:12.778Z,13.99
2022-07-26T18:52:45.586Z,13.96
2022-07-26T18:55:15.400Z,13.94
2022-07-26T18:57:45.155Z,13.93
2022-07-26T19:00:19.916Z,13.92
2022-07-26T19:02:48.599Z,13.92
2022-07-26T19:05:17.315Z,13.85
2022-07-26T19:07:47.421Z,13.80
2022-07-26T19:10:15.589Z,13.79
2022-07-26T19:12:45.897Z,13.74
2022-07-26T19:15:17.898Z,13.76
2022-07-26T19:17:46.148Z,13.67
2022-07-26T19:20:14.834Z,13.69
2022-07-26T19:22:47.675Z,13.65
2022-07-26T19:25:17.029Z,13.64
2022-07-26T19:27:47.473Z,13.62
2022-07-26T19:30:15.640Z,13.57
2022-07-26T19:32:43.634Z,13.54
2022-07-26T19:35:11.684Z,13.52
2022-07-26T19:37:41.851Z,13.50
2022-07-26T19:40:10.456Z,13.48
2022-07-26T19:42:38.610Z,13.44
2022-07-26T19:45:09.525Z,13.43
2022-07-26T19:47:38.051Z,13.43
2022-07-26T19:50:09.152Z,13.43
2022-07-26T19:52:37.373Z,13.41
2022-07-26T19:55:05.946Z,13.38
2022-07-26T19:57:34.041Z,13.36
2022-07-26T20:00:05.686Z,13.25
2022-07-26T20:02:33.919Z,13.25
2022-07-26T20:05:02.120Z,13.25
2022-07-26T20:07:31.078Z,13.20
2022-07-26T20:09:59.135Z,13.19
2022-07-26T20:12:27.176Z,13.12
2022-07-26T20:14:55.193Z,13.13
2022-07-26T20:17:24.133Z,13.08
2022-07-26T20:19:53.839Z,13.06
2022-07-26T20:22:24.209Z,13.03
2022-07-26T20:24:55.928Z,13.02
2022-07-26T20:27:25.326Z,12.99
2022-07-26T20:30:00.391Z,12.95
2022-07-26T20:32:28.957Z,12.98
2022-07-26T20:34:56.931Z,12.99
2022-07-26T20:37:25.082Z,12.97
2022-07-26T20:39:53.105Z,12.96
2022-07-26T20:42:21.895Z,12.90
2022-07-26T20:44:51.864Z,12.92
2022-07-26T20:47:20.026Z,12.88
2022-07-26T20:49:48.051Z,12.87
2022-07-26T20:52:16.276Z,12.82
2022-07-26T20:54:44.393Z,12.79
2022-07-26T20:57:12.405Z,12.77
2022-07-26T20:59:40.513Z,12.69
2022-07-26T21:02:08.739Z,12.71
2022-07-26T21:04:36.933Z,12.71
2022-07-26T21:07:05.112Z,12.70
2022-07-26T21:09:33.170Z,12.68
2022-07-26T21:12:01.419Z,12.67
2022-07-26T21:14:29.662Z,12.59
2022-07-26T21:16:57.724Z,12.61
2022-07-26T21:19:25.802Z,12.59
2022-07-26T21:21:57.768Z,12.62
2022-07-26T21:24:25.756Z,12.65
2022-07-26T21:26:55.938Z,12.63
2022-07-26T21:29:25.274Z,12.62
2022-07-26T21:31:54.561Z,12.57
2022-07-26T21:34:22.877Z,12.54
2022-07-26T21:36:53.180Z,12.55
2022-07-26T21:39:21.466Z,12.56
2022-07-26T21:41:49.576Z,12.54
2022-07-26T21:44:17.734Z,12.54
2022-07-26T21:46:45.845Z,12.53
2022-07-26T21:49:14.206Z,12.46
2022-07-26T21:51:42.797Z,12.52
2022-07-26T21:54:10.889Z,12.53
2022-07-26T21:56:38.942Z,12.44
2022-07-26T21:59:07.092Z,12.55
2022-07-26T22:01:35.140Z,12.51
2022-07-26T22:04:03.204Z,12.48
2022-07-26T22:06:31.454Z,12.41
2022-07-26T22:08:59.515Z,12.34
2022-07-26T22:11:27.499Z,12.41
2022-07-26T22:13:55.873Z,12.42
2022-07-26T22:16:23.910Z,12.40
2022-07-26T22:18:51.945Z,12.37
2022-07-26T22:21:21.230Z,12.34
2022-07-26T22:23:50.038Z,12.33
2022-07-26T22:26:18.091Z,12.24
2022-07-26T22:28:46.255Z,12.27
2022-07-26T22:31:14.298Z,12.26
2022-07-26T22:33:42.546Z,12.24
2022-07-26T22:36:10.858Z,12.20
2022-07-26T22:38:38.874Z,12.22
2022-07-26T22:41:06.885Z,12.20
2022-07-26T22:43:35.076Z,12.17
2022-07-26T22:46:03.288Z,12.17
2022-07-26T22:48:32.424Z,12.16
2022-07-26T22:51:03.050Z,12.18
2022-07-26T22:53:31.104Z,12.23
2022-07-26T22:55:59.208Z,12.15
2022-07-26T22:58:31.340Z,12.26
2022-07-26T23:00:59.490Z,12.29
2022-07-26T23:03:28.017Z,12.33
2022-07-26T23:05:58.946Z,12.41
2022-07-26T23:08:46.533Z,12.43
2022-07-26T23:11:15.744Z,12.53
2022-07-26T23:13:43.704Z,12.61
2022-07-26T23:16:11.861Z,12.67
2022-07-26T23:18:42.678Z,12.71
2022-07-26T23:21:10.737Z,12.76
2022-07-26T23:23:38.738Z,12.76
2022-07-26T23:26:06.917Z,12.86
2022-07-26T23:28:37.711Z,12.96
2022-07-26T23:31:11.821Z,13.02
2022-07-26T23:33:50.906Z,13.15
2022-07-26T23:36:26.698Z,13.36
2022-07-26T23:39:00.182Z,13.49
2022-07-26T23:41:28.678Z,13.60
2022-07-26T23:43:56.946Z,13.72
2022-07-26T23:46:25.904Z,13.85
2022-07-26T23:48:55.624Z,13.98
2022-07-26T23:51:23.844Z,14.11
2022-07-26T23:53:52.563Z,14.20
2022-07-26T23:56:20.583Z,14.32
2022-07-26T23:58:48.947Z,14.40
